Time;durP1;ratioP1;P1;durP2;ratioP2;P2;SDS_P1;SDS_P2;PMS_P1;PMS_P2;Temp;Humidity;BMP_temperature;BMP_pressure;BME280_temperature;BME280_humidity;BME280_pressure;Samples;Min_cycle;Max_cycle;Signal;HPM_P1;HPM_P2
2023/12/21 00:01:34;;;;;;;1.90;1.80;;;19.10;43.80;;;;;;4988706;28;20582;-76
2023/12/21 00:03:59;;;;;;;5.03;1.90;;;19.10;43.80;;;;;;4964974;28;20680;-76
2023/12/21 00:06:25;;;;;;;1.80;1.70;;;19.10;44.00;;;;;;4986566;28;20463;-77
2023/12/21 00:08:50;;;;;;;1.80;1.70;;;19.10;43.80;;;;;;4974172;28;20228;-76
2023/12/21 00:11:16;;;;;;;1.70;1.60;;;19.10;43.90;;;;;;4980175;28;20212;-77
2023/12/21 00:13:41;;;;;;;1.67;1.57;;;19.10;43.80;;;;;;4989837;28;20212;-76
2023/12/21 00:16:07;;;;;;;2.37;1.87;;;19.10;43.80;;;;;;5004664;28;20560;-77
2023/12/21 00:18:32;;;;;;;1.60;1.50;;;19.10;43.80;;;;;;4988593;28;20226;-77
2023/12/21 00:20:58;;;;;;;1.90;1.70;;;19.10;43.90;;;;;;4979408;28;20235;-76
2023/12/21 00:23:24;;;;;;;1.90;1.80;;;19.10;43.80;;;;;;4977222;28;20321;-75
2023/12/21 00:25:49;;;;;;;1.70;1.60;;;19.10;43.80;;;;;;4983789;28;20677;-77
2023/12/21 00:28:15;;;;;;;4.43;1.50;;;19.10;43.90;;;;;;4972198;28;20647;-76
2023/12/21 00:30:40;;;;;;;1.73;1.63;;;19.10;43.80;;;;;;4982173;28;20232;-75
2023/12/21 00:33:06;;;;;;;1.97;1.60;;;19.10;43.80;;;;;;4987692;28;20220;-76
2023/12/21 00:35:31;;;;;;;1.93;1.70;;;19.10;43.80;;;;;;4987018;28;20233;-75
2023/12/21 00:37:57;;;;;;;1.90;1.80;;;19.10;43.90;;;;;;4990538;28;20254;-77
2023/12/21 00:40:22;;;;;;;1.90;1.80;;;19.10;43.80;;;;;;5005221;28;20691;-77
2023/12/21 00:42:48;;;;;;;2.03;1.80;;;19.10;43.90;;;;;;4980109;28;20253;-76
2023/12/21 00:45:13;;;;;;;1.60;1.50;;;19.10;43.90;;;;;;4989784;28;20247;-73
2023/12/21 00:47:39;;;;;;;2.23;1.47;;;19.10;43.90;;;;;;4983993;28;20242;-76
2023/12/21 00:50:06;;;;;;;1.70;1.60;;;19.10;43.80;;;;;;4973663;28;20671;-73
2023/12/21 00:52:31;;;;;;;1.70;1.60;;;19.10;43.80;;;;;;4982187;28;20477;-74
2023/12/21 00:54:57;;;;;;;1.80;1.70;;;19.10;43.90;;;;;;4988704;28;20493;-74
2023/12/21 00:57:23;;;;;;;1.57;1.47;;;19.10;43.80;;;;;;4984856;28;20227;-74
2023/12/21 00:59:49;;;;;;;1.50;1.40;;;19.10;43.90;;;;;;4987165;28;20738;-74
2023/12/21 01:02:14;;;;;;;1.47;1.37;;;19.10;43.80;;;;;;4973020;28;20286;-75
2023/12/21 01:04:40;;;;;;;1.60;1.50;;;19.10;44.00;;;;;;4986300;28;20234;-75
2023/12/21 01:07:05;;;;;;;1.73;1.63;;;19.10;43.90;;;;;;4992375;28;20238;-76
2023/12/21 01:09:31;;;;;;;1.53;1.43;;;19.10;43.90;;;;;;4978704;28;20228;-74
2023/12/21 01:11:56;;;;;;;1.37;1.27;;;19.10;43.90;;;;;;4974596;28;20258;-74
2023/12/21 01:14:22;;;;;;;1.80;1.70;;;19.10;43.90;;;;;;4985590;28;20628;-75
2023/12/21 01:16:48;;;;;;;1.63;1.53;;;19.10;43.90;;;;;;4981424;28;20228;-76
2023/12/21 01:19:14;;;;;;;1.47;1.37;;;19.10;43.80;;;;;;4984421;28;20509;-76
2023/12/21 01:21:39;;;;;;;1.70;1.50;;;19.10;43.90;;;;;;4986956;28;20247;-75
2023/12/21 01:24:05;;;;;;;1.30;1.20;;;19.10;43.90;;;;;;4981502;28;20228;-74
2023/12/21 01:26:31;;;;;;;1.57;1.47;;;19.10;43.80;;;;;;4986605;28;20670;-74
2023/12/21 01:28:57;;;;;;;1.63;1.53;;;19.10;43.90;;;;;;4989288;28;20444;-74
2023/12/21 01:31:22;;;;;;;2.30;2.20;;;19.10;43.90;;;;;;4977069;28;20224;-75
2023/12/21 01:33:48;;;;;;;1.20;1.10;;;19.10;44.60;;;;;;4973687;28;20231;-76
2023/12/21 01:36:13;;;;;;;1.67;1.57;;;19.10;43.90;;;;;;4978709;28;20604;-75
2023/12/21 01:38:39;;;;;;;1.50;1.40;;;19.10;43.90;;;;;;4988503;28;20227;-74
2023/12/21 01:41:04;;;;;;;1.87;1.40;;;19.10;43.90;;;;;;4983348;28;20219;-75
2023/12/21 01:43:30;;;;;;;1.37;1.27;;;19.10;43.90;;;;;;4983976;28;20278;-75
2023/12/21 01:45:58;;;;;;;1.40;1.30;;;19.10;43.90;;;;;;4983795;28;20232;-75
2023/12/21 01:48:26;;;;;;;1.30;1.20;;;19.10;43.90;;;;;;4985835;28;20223;-76
2023/12/21 01:50:52;;;;;;;1.77;1.40;;;19.10;43.90;;;;;;4974947;28;20851;-76
2023/12/21 01:53:18;;;;;;;1.40;1.30;;;19.10;43.90;;;;;;4987616;28;20443;-76
2023/12/21 01:55:45;;;;;;;1.57;1.47;;;19.10;43.80;;;;;;4968625;28;20824;-76
2023/12/21 01:58:11;;;;;;;1.50;1.40;;;19.10;43.90;;;;;;4987885;28;20857;-77
2023/12/21 02:00:36;;;;;;;1.50;1.40;;;19.10;43.90;;;;;;4982315;28;20427;-77
2023/12/21 02:03:02;;;;;;;1.33;1.20;;;19.10;43.90;;;;;;4982487;28;20231;-77
2023/12/21 02:05:27;;;;;;;1.50;1.40;;;19.10;43.90;;;;;;4965898;28;20239;-77
2023/12/21 02:07:53;;;;;;;1.50;1.30;;;19.10;43.90;;;;;;4963786;28;20228;-77
2023/12/21 02:10:19;;;;;;;1.40;1.30;;;19.10;43.90;;;;;;4985185;28;20238;-77
2023/12/21 02:12:44;;;;;;;1.90;1.80;;;19.10;43.90;;;;;;4978351;28;20227;-77
2023/12/21 02:15:10;;;;;;;1.30;1.20;;;19.10;43.90;;;;;;4993231;28;20228;-77
2023/12/21 02:17:37;;;;;;;1.40;1.30;;;19.10;43.90;;;;;;4993703;28;20659;-76
2023/12/21 02:20:05;;;;;;;1.37;1.27;;;19.10;43.90;;;;;;4990669;28;20465;-77
2023/12/21 02:22:34;;;;;;;1.23;1.13;;;19.10;43.90;;;;;;4971711;28;20435;-77
2023/12/21 02:25:00;;;;;;;1.23;1.13;;;19.10;43.90;;;;;;4990007;28;21000;-77
2023/12/21 02:27:26;;;;;;;1.50;1.40;;;19.10;43.90;;;;;;4977142;28;20428;-77
2023/12/21 02:29:51;;;;;;;1.83;1.20;;;19.10;43.90;;;;;;4978790;28;20451;-77
2023/12/21 02:32:17;;;;;;;1.53;1.40;;;19.10;43.90;;;;;;4972811;28;20217;-77
2023/12/21 02:34:43;;;;;;;1.27;1.17;;;19.10;43.90;;;;;;4979865;28;20223;-77
2023/12/21 02:37:08;;;;;;;1.57;1.47;;;19.10;43.90;;;;;;4994291;28;20589;-77
2023/12/21 02:39:34;;;;;;;1.30;1.20;;;19.10;43.90;;;;;;4992462;28;20592;-77
2023/12/21 02:41:59;;;;;;;1.50;1.40;;;19.10;43.90;;;;;;4988117;28;20232;-77
2023/12/21 02:44:25;;;;;;;1.60;1.50;;;19.10;43.80;;;;;;4989838;28;20231;-77
2023/12/21 02:46:50;;;;;;;1.20;1.10;;;19.10;43.90;;;;;;4978904;28;20243;-77
2023/12/21 02:49:16;;;;;;;1.30;1.20;;;19.10;43.90;;;;;;4977944;28;20570;-77
2023/12/21 02:51:41;;;;;;;1.10;1.00;;;19.10;43.90;;;;;;4982796;28;20711;-77
2023/12/21 02:54:07;;;;;;;1.60;1.50;;;19.10;43.90;;;;;;4979568;28;20220;-77
2023/12/21 02:56:32;;;;;;;1.47;1.30;;;19.10;43.90;;;;;;4980236;28;20290;-77
2023/12/21 02:58:58;;;;;;;1.70;1.60;;;19.10;43.90;;;;;;4990229;28;20314;-77
2023/12/21 03:01:24;;;;;;;1.50;1.40;;;19.10;43.90;;;;;;4986688;28;20223;-77
2023/12/21 03:03:51;;;;;;;1.17;1.07;;;19.10;44.00;;;;;;4985018;28;20709;-77
2023/12/21 03:06:16;;;;;;;1.10;1.00;;;19.10;43.90;;;;;;4993016;28;20316;-77
2023/12/21 03:08:42;;;;;;;1.30;1.20;;;19.10;43.90;;;;;;4992817;28;20450;-76
2023/12/21 03:11:07;;;;;;;1.10;1.00;;;19.10;43.90;;;;;;4983255;28;20231;-75
2023/12/21 03:13:33;;;;;;;1.40;1.30;;;19.10;43.90;;;;;;4993611;28;20251;-76
2023/12/21 03:15:58;;;;;;;1.33;1.23;;;19.10;43.90;;;;;;4980574;28;20231;-76
2023/12/21 03:18:24;;;;;;;1.10;1.00;;;19.10;43.90;;;;;;4990165;28;20634;-76
2023/12/21 03:20:49;;;;;;;1.20;1.10;;;19.10;43.90;;;;;;4961619;28;20301;-76
2023/12/21 03:23:15;;;;;;;1.10;1.00;;;19.10;43.90;;;;;;4990719;28;20238;-76
2023/12/21 03:25:40;;;;;;;1.30;1.20;;;19.10;43.90;;;;;;4979279;28;20219;-76
2023/12/21 03:28:08;;;;;;;1.27;1.17;;;19.10;43.90;;;;;;4990473;28;20473;-76
2023/12/21 03:30:34;;;;;;;1.40;1.30;;;19.10;43.90;;;;;;4976609;28;20227;-76
2023/12/21 03:32:59;;;;;;;1.50;1.40;;;19.10;43.90;;;;;;4992256;28;20456;-76
2023/12/21 03:35:25;;;;;;;1.30;1.20;;;19.10;43.90;;;;;;4973413;28;20577;-76
2023/12/21 03:37:51;;;;;;;1.30;1.20;;;19.10;43.90;;;;;;4984873;28;20310;-76
2023/12/21 03:40:18;;;;;;;1.20;1.10;;;19.10;43.90;;;;;;4974496;28;20224;-76
2023/12/21 03:42:45;;;;;;;1.23;1.13;;;19.10;43.90;;;;;;4978295;28;20329;-76
2023/12/21 03:45:11;;;;;;;1.30;1.20;;;19.10;43.90;;;;;;4978303;28;20457;-76
2023/12/21 03:47:36;;;;;;;1.20;1.10;;;19.10;43.80;;;;;;4983207;28;20850;-76
2023/12/21 03:50:02;;;;;;;1.40;1.30;;;19.10;43.90;;;;;;4974107;28;21161;-76
2023/12/21 03:52:28;;;;;;;1.30;1.20;;;19.10;43.80;;;;;;4971958;28;20236;-76
2023/12/21 03:54:53;;;;;;;1.57;1.47;;;19.10;43.80;;;;;;4975592;28;20221;-76
2023/12/21 03:57:19;;;;;;;1.10;1.00;;;19.10;43.90;;;;;;4975139;28;20211;-76
2023/12/21 03:59:44;;;;;;;1.47;1.00;;;19.10;43.80;;;;;;4988572;28;20691;-76
2023/12/21 04:02:10;;;;;;;1.30;1.20;;;19.10;43.90;;;;;;4954980;28;20228;-75
2023/12/21 04:04:36;;;;;;;1.20;1.10;;;19.10;43.90;;;;;;4992693;28;20266;-76
2023/12/21 04:07:01;;;;;;;1.20;1.10;;;19.10;43.90;;;;;;4991985;28;20239;-76
2023/12/21 04:09:28;;;;;;;1.20;1.10;;;19.10;44.60;;;;;;4986578;28;20946;-76
2023/12/21 04:11:53;;;;;;;1.97;1.20;;;19.10;43.90;;;;;;4986506;28;20623;-76
2023/12/21 04:14:19;;;;;;;1.20;1.10;;;19.10;43.90;;;;;;4990382;28;21058;-76
2023/12/21 04:16:44;;;;;;;1.93;1.10;;;19.10;43.90;;;;;;4983985;28;20269;-76
2023/12/21 04:19:10;;;;;;;1.17;1.07;;;19.10;43.90;;;;;;4980772;28;22396;-76
2023/12/21 04:21:35;;;;;;;1.07;0.97;;;19.10;43.80;;;;;;4979618;28;20320;-76
2023/12/21 04:24:01;;;;;;;1.10;1.00;;;19.10;43.90;;;;;;4963087;28;20248;-75
2023/12/21 04:26:26;;;;;;;1.27;1.10;;;19.10;43.90;;;;;;4985321;28;20247;-76
2023/12/21 04:28:52;;;;;;;1.83;1.20;;;19.10;43.90;;;;;;4971011;28;20901;-76
2023/12/21 04:31:22;;;;;;;1.63;1.53;;;19.10;43.90;;;;;;4988222;28;20227;-75
2023/12/21 04:33:49;;;;;;;1.50;0.90;;;19.10;43.90;;;;;;4987933;28;20589;-76
2023/12/21 04:36:16;;;;;;;1.00;0.90;;;19.10;43.80;;;;;;4981817;28;20501;-76
2023/12/21 04:38:41;;;;;;;1.00;0.90;;;19.10;43.90;;;;;;4994746;28;20428;-76
2023/12/21 04:41:07;;;;;;;1.00;1.00;;;19.10;43.80;;;;;;4979853;28;20819;-76
2023/12/21 04:43:32;;;;;;;1.20;1.00;;;19.10;43.90;;;;;;4994714;28;20311;-76
2023/12/21 04:45:58;;;;;;;1.30;1.07;;;19.10;43.90;;;;;;4991947;28;20226;-76
2023/12/21 04:48:23;;;;;;;2.10;1.33;;;19.10;43.90;;;;;;4980334;28;20215;-76
2023/12/21 04:50:49;;;;;;;1.67;1.07;;;19.10;43.90;;;;;;4988725;28;20216;-76
2023/12/21 04:53:14;;;;;;;1.10;1.00;;;19.10;43.90;;;;;;4993074;28;20231;-76
2023/12/21 04:55:40;;;;;;;2.17;1.10;;;19.10;43.80;;;;;;4973134;28;20235;-76
2023/12/21 04:58:05;;;;;;;1.03;0.90;;;19.10;43.90;;;;;;4976730;28;20223;-76
2023/12/21 05:00:31;;;;;;;1.10;1.00;;;19.10;43.90;;;;;;4966447;28;20223;-75
2023/12/21 05:02:57;;;;;;;1.03;0.90;;;19.10;43.90;;;;;;4971213;28;20669;-76
2023/12/21 05:05:22;;;;;;;1.20;1.10;;;19.10;43.90;;;;;;4969269;28;20224;-76
2023/12/21 05:07:48;;;;;;;1.20;1.10;;;19.10;43.90;;;;;;4963512;28;20324;-75
2023/12/21 05:10:14;;;;;;;1.20;1.00;;;19.10;43.80;;;;;;4976184;28;20229;-76
2023/12/21 05:12:39;;;;;;;1.20;1.10;;;19.20;44.00;;;;;;4988364;28;21041;-76
2023/12/21 05:15:05;;;;;;;1.27;1.17;;;19.20;44.00;;;;;;4970226;28;20298;-76
2023/12/21 05:17:31;;;;;;;1.50;1.33;;;19.20;44.00;;;;;;4957884;28;20284;-76
2023/12/21 05:19:57;;;;;;;2.00;1.10;;;19.20;44.00;;;;;;4986609;28;20432;-76
2023/12/21 05:22:22;;;;;;;1.67;1.10;;;19.20;44.00;;;;;;4991830;28;20694;-76
2023/12/21 05:24:48;;;;;;;1.10;1.00;;;19.20;44.00;;;;;;4979869;28;20254;-76
2023/12/21 05:27:13;;;;;;;1.33;1.23;;;19.20;44.00;;;;;;4975545;28;20224;-76
2023/12/21 05:29:41;;;;;;;1.80;1.13;;;19.20;44.00;;;;;;4976724;28;20242;-76
2023/12/21 05:32:07;;;;;;;1.20;1.03;;;19.20;44.00;;;;;;4982996;28;20229;-76
2023/12/21 05:34:32;;;;;;;1.30;1.20;;;19.20;44.00;;;;;;4988421;28;20466;-76
2023/12/21 05:36:59;;;;;;;1.17;1.07;;;19.20;44.00;;;;;;4977623;28;20238;-76
2023/12/21 05:39:25;;;;;;;1.73;1.20;;;19.20;44.00;;;;;;4966773;28;20675;-76
2023/12/21 05:41:50;;;;;;;1.60;1.50;;;19.20;44.00;;;;;;4961490;28;20817;-76
2023/12/21 05:44:16;;;;;;;1.20;1.10;;;19.20;43.90;;;;;;4978243;28;20461;-76
2023/12/21 05:46:42;;;;;;;1.33;1.10;;;19.20;43.90;;;;;;4984527;28;20307;-76
2023/12/21 05:49:08;;;;;;;1.30;1.20;;;19.20;44.00;;;;;;4977922;28;20238;-75
2023/12/21 05:51:34;;;;;;;1.53;1.00;;;19.20;44.00;;;;;;4970074;28;20441;-76
2023/12/21 05:54:00;;;;;;;0.90;0.90;;;19.20;44.80;;;;;;4976230;28;21014;-76
2023/12/21 05:56:25;;;;;;;1.53;1.00;;;19.20;44.00;;;;;;4971326;28;20291;-76
2023/12/21 05:58:51;;;;;;;1.33;1.23;;;19.20;44.00;;;;;;4983211;28;20212;-76
2023/12/21 06:01:17;;;;;;;1.23;1.13;;;19.30;44.10;;;;;;4988862;28;20603;-76
2023/12/21 06:03:42;;;;;;;1.40;1.30;;;19.20;44.00;;;;;;4989683;28;20223;-76
2023/12/21 06:06:08;;;;;;;0.90;0.90;;;19.30;44.10;;;;;;4984957;28;20482;-76
2023/12/21 06:08:33;;;;;;;1.40;1.30;;;19.30;44.00;;;;;;4971424;28;20240;-78
2023/12/21 06:10:59;;;;;;;1.47;1.30;;;19.20;43.90;;;;;;4964870;28;20228;-74
2023/12/21 06:13:25;;;;;;;1.10;1.00;;;19.30;44.10;;;;;;4976207;28;20223;-71
2023/12/21 06:15:50;;;;;;;1.40;1.20;;;19.30;44.10;;;;;;4979620;28;20245;-74
2023/12/21 06:18:16;;;;;;;1.37;1.27;;;19.30;44.10;;;;;;4974949;28;20238;-74
2023/12/21 06:20:41;;;;;;;2.73;1.17;;;19.20;44.00;;;;;;4977518;28;20315;-74
2023/12/21 06:23:07;;;;;;;1.07;1.00;;;19.30;44.10;;;;;;4981834;28;21331;-74
2023/12/21 06:25:32;;;;;;;2.20;1.20;;;19.30;44.00;;;;;;4984249;28;20256;-75
2023/12/21 06:27:58;;;;;;;1.30;1.20;;;19.30;44.00;;;;;;4988328;28;20297;-75
2023/12/21 06:30:23;;;;;;;2.10;1.00;;;19.30;44.10;;;;;;4996738;28;20274;-75
2023/12/21 06:32:49;;;;;;;2.30;1.10;;;19.30;44.10;;;;;;4984192;28;20703;-75
2023/12/21 06:35:17;;;;;;;1.07;0.97;;;19.20;44.20;;;;;;4988443;28;20223;-75
2023/12/21 06:37:42;;;;;;;1.40;1.30;;;19.30;44.10;;;;;;4990203;28;20317;-75
2023/12/21 06:40:09;;;;;;;1.50;1.10;;;19.30;44.10;;;;;;4997336;28;20551;-76
2023/12/21 06:42:34;;;;;;;1.80;1.70;;;19.30;44.10;;;;;;4998307;28;20239;-76
2023/12/21 06:45:00;;;;;;;2.07;1.00;;;19.30;44.00;;;;;;4970059;28;20424;-75
2023/12/21 06:47:25;;;;;;;1.30;1.20;;;19.40;44.10;;;;;;4989189;28;20235;-76
2023/12/21 06:49:51;;;;;;;1.10;1.00;;;19.40;44.10;;;;;;4993140;28;20559;-76
2023/12/21 06:52:17;;;;;;;1.27;1.10;;;19.40;44.10;;;;;;4985529;28;20208;-76
2023/12/21 06:54:42;;;;;;;1.10;1.00;;;19.40;44.10;;;;;;4994956;28;20234;-76
2023/12/21 06:57:08;;;;;;;1.13;1.03;;;19.40;44.20;;;;;;4980945;28;20220;-75
2023/12/21 06:59:33;;;;;;;1.30;1.13;;;19.40;44.10;;;;;;4989732;28;20309;-76
2023/12/21 07:01:59;;;;;;;1.30;1.20;;;19.40;44.00;;;;;;4994418;28;20231;-76
2023/12/21 07:04:24;;;;;;;1.57;1.10;;;19.40;44.20;;;;;;4990528;28;20220;-76
2023/12/21 07:06:50;;;;;;;1.20;1.00;;;19.40;44.20;;;;;;4965408;28;20687;-76
2023/12/21 07:09:17;;;;;;;1.20;1.10;;;19.40;44.10;;;;;;4982701;28;20304;-76
2023/12/21 07:11:43;;;;;;;1.43;1.33;;;19.40;44.20;;;;;;4974802;28;20464;-76
2023/12/21 07:14:08;;;;;;;1.20;1.10;;;19.40;44.20;;;;;;4979542;28;21024;-76
2023/12/21 07:16:34;;;;;;;1.30;1.20;;;19.40;44.20;;;;;;4989379;28;20300;-77
2023/12/21 07:19:01;;;;;;;1.37;1.27;;;19.40;44.20;;;;;;4985092;28;20318;-76
2023/12/21 07:21:28;;;;;;;1.20;1.10;;;19.40;44.20;;;;;;4990045;28;20701;-77
2023/12/21 07:23:53;;;;;;;1.10;1.00;;;19.40;44.20;;;;;;4993160;28;20475;-76
2023/12/21 07:26:19;;;;;;;1.27;1.17;;;19.40;44.20;;;;;;4981469;28;21015;-77
2023/12/21 07:28:44;;;;;;;1.20;1.10;;;19.40;44.20;;;;;;4986975;28;20220;-77
2023/12/21 07:31:13;;;;;;;1.20;1.10;;;19.40;44.10;;;;;;4997378;28;20215;-75
2023/12/21 07:33:38;;;;;;;1.20;1.10;;;19.40;44.20;;;;;;4991452;28;20665;-77
2023/12/21 07:36:07;;;;;;;1.90;1.00;;;19.40;44.20;;;;;;4981240;28;20440;-76
2023/12/21 07:38:32;;;;;;;1.77;1.07;;;19.40;44.50;;;;;;4986133;28;21528;-75
2023/12/21 07:40:58;;;;;;;1.00;0.90;;;19.40;44.20;;;;;;4968319;28;20419;-77
2023/12/21 07:43:23;;;;;;;2.10;1.30;;;19.40;44.20;;;;;;4978450;28;20354;-78
2023/12/21 07:45:49;;;;;;;1.50;1.40;;;19.40;44.20;;;;;;4991337;28;20355;-75
2023/12/21 07:48:15;;;;;;;1.30;1.20;;;19.40;44.10;;;;;;4974374;28;20231;-75
2023/12/21 07:50:40;;;;;;;1.53;1.40;;;19.40;44.20;;;;;;4981753;28;20228;-75
2023/12/21 07:53:06;;;;;;;1.40;1.30;;;19.40;44.20;;;;;;4993985;28;20687;-75
2023/12/21 07:55:31;;;;;;;2.40;1.30;;;19.40;44.20;;;;;;4994039;28;20675;-76
2023/12/21 07:57:57;;;;;;;1.80;1.70;;;19.40;44.10;;;;;;4991954;28;20227;-77
2023/12/21 08:00:22;;;;;;;2.03;1.53;;;19.40;44.20;;;;;;4978469;28;20224;-76
2023/12/21 08:02:48;;;;;;;1.50;1.40;;;19.40;44.20;;;;;;4975574;28;20239;-76
2023/12/21 08:05:14;;;;;;;1.83;1.60;;;19.40;44.10;;;;;;4969439;28;20224;-75
2023/12/21 08:07:40;;;;;;;1.77;1.67;;;19.40;44.20;;;;;;4978909;28;20286;-76
2023/12/21 08:10:09;;;;;;;1.93;1.77;;;19.40;44.10;;;;;;4976135;28;20440;-75
2023/12/21 08:12:35;;;;;;;1.90;1.80;;;19.40;45.00;;;;;;4973780;28;21365;-75
2023/12/21 08:15:01;;;;;;;1.80;1.67;;;19.40;44.20;;;;;;4981008;28;20853;-75
2023/12/21 08:17:27;;;;;;;3.63;1.90;;;19.40;44.20;;;;;;4988379;28;20554;-75
2023/12/21 08:19:52;;;;;;;2.03;1.83;;;19.40;44.20;;;;;;4973300;28;20464;-74
2023/12/21 08:22:18;;;;;;;1.93;1.83;;;19.40;44.20;;;;;;4984748;28;20806;-76
2023/12/21 08:24:43;;;;;;;3.40;2.30;;;19.40;44.20;;;;;;4969323;28;20216;-76
2023/12/21 08:27:09;;;;;;;2.30;2.10;;;19.40;44.20;;;;;;4983143;28;20223;-78
2023/12/21 08:29:34;;;;;;;1.80;1.70;;;19.40;44.20;;;;;;4985817;28;20216;-77
2023/12/21 08:32:00;;;;;;;2.53;2.33;;;19.30;44.10;;;;;;4964414;28;20224;-76
2023/12/21 08:34:26;;;;;;;2.53;2.00;;;19.30;44.10;;;;;;4985386;28;20235;-77
2023/12/21 08:36:52;;;;;;;1.90;1.70;;;19.30;44.10;;;;;;4986220;28;20803;-77
2023/12/21 08:39:17;;;;;;;3.93;2.60;;;19.40;44.10;;;;;;4976793;28;20217;-77
2023/12/21 08:41:43;;;;;;;3.50;2.33;;;19.40;44.20;;;;;;4986747;28;20267;-77
2023/12/21 08:44:09;;;;;;;2.00;1.80;;;19.40;44.20;;;;;;4978111;28;20222;-77
2023/12/21 08:46:35;;;;;;;2.40;2.20;;;19.30;44.00;;;;;;4989593;28;20223;-77
2023/12/21 08:49:01;;;;;;;2.40;2.20;;;19.30;44.10;;;;;;4977289;28;20454;-77
2023/12/21 08:51:26;;;;;;;2.03;1.93;;;19.30;44.00;;;;;;4988948;28;20238;-77
2023/12/21 08:53:52;;;;;;;2.13;1.90;;;19.30;44.10;;;;;;4986935;28;20290;-77
2023/12/21 08:56:17;;;;;;;2.40;2.20;;;19.30;44.10;;;;;;4981760;28;20289;-79
2023/12/21 08:58:43;;;;;;;2.30;2.10;;;19.30;44.10;;;;;;4992384;28;20232;-78
2023/12/21 09:01:09;;;;;;;2.47;2.27;;;19.30;44.10;;;;;;4990728;28;20219;-75
2023/12/21 09:03:34;;;;;;;2.33;2.13;;;19.30;44.10;;;;;;4983201;28;20236;-77
2023/12/21 09:06:00;;;;;;;3.50;2.30;;;19.30;44.10;;;;;;4992427;28;20223;-76
2023/12/21 09:08:26;;;;;;;3.07;2.80;;;19.30;44.10;;;;;;4977792;28;20216;-75
2023/12/21 09:10:52;;;;;;;2.20;2.00;;;19.30;44.10;;;;;;4979702;28;20598;-74
2023/12/21 09:13:18;;;;;;;2.13;1.93;;;19.30;44.10;;;;;;4988772;28;20494;-75
2023/12/21 09:15:43;;;;;;;6.67;4.40;;;19.30;44.10;;;;;;4969551;28;20628;-74
2023/12/21 09:18:09;;;;;;;10.50;5.30;;;19.30;44.10;;;;;;4966211;28;20220;-75
2023/12/21 09:20:34;;;;;;;6.07;3.90;;;19.30;44.10;;;;;;4977439;28;20223;-76
2023/12/21 09:23:00;;;;;;;13.53;5.27;;;19.40;44.10;;;;;;4960220;28;20784;-76
2023/12/21 09:25:26;;;;;;;6.80;4.90;;;19.40;44.20;;;;;;4983128;28;20246;-77
2023/12/21 09:27:53;;;;;;;8.30;5.43;;;19.40;44.20;;;;;;5000816;28;20671;-73
2023/12/21 09:30:20;;;;;;;4.30;3.00;;;19.40;44.20;;;;;;4989410;28;20226;-72
2023/12/21 09:32:46;;;;;;;3.60;2.97;;;19.40;44.20;;;;;;4989504;28;20451;-73
2023/12/21 09:35:12;;;;;;;3.80;2.87;;;19.40;44.10;;;;;;4985283;28;20468;-74
2023/12/21 09:37:37;;;;;;;7.30;3.03;;;19.40;44.20;;;;;;4986088;28;20310;-73
2023/12/21 09:40:03;;;;;;;5.07;3.70;;;19.40;44.20;;;;;;4975009;28;20247;-71
2023/12/21 09:42:30;;;;;;;5.57;3.60;;;19.40;44.20;;;;;;4974953;28;20278;-74
2023/12/21 09:44:55;;;;;;;4.87;3.27;;;19.40;44.20;;;;;;4977490;28;20235;-73
2023/12/21 09:47:23;;;;;;;4.47;2.63;;;19.30;44.10;;;;;;4982879;28;20494;-71
2023/12/21 09:49:50;;;;;;;3.57;3.27;;;19.30;44.10;;;;;;4962151;28;20224;-73
2023/12/21 09:52:20;;;;;;;4.40;3.17;;;19.40;44.20;;;;;;4980240;28;20980;-71
2023/12/21 09:54:49;;;;;;;3.00;2.80;;;19.30;44.10;;;;;;4980158;28;20476;-72
2023/12/21 09:57:15;;;;;;;3.27;2.97;;;19.30;44.10;;;;;;4986594;28;20462;-73
2023/12/21 09:59:41;;;;;;;7.10;3.20;;;19.30;44.10;;;;;;4986824;28;20976;-73
2023/12/21 10:02:12;;;;;;;3.23;2.87;;;19.30;44.10;;;;;;4976214;28;20477;-74
2023/12/21 10:04:41;;;;;;;3.43;2.97;;;19.30;44.10;;;;;;4989637;28;20709;-72
2023/12/21 10:07:08;;;;;;;2.70;2.50;;;19.30;44.10;;;;;;4989775;28;20484;-72
2023/12/21 10:09:34;;;;;;;3.00;2.77;;;19.30;44.10;;;;;;5002121;28;20428;-72
2023/12/21 10:12:00;;;;;;;2.83;2.63;;;19.30;44.10;;;;;;4988142;28;20436;-72
2023/12/21 10:14:27;;;;;;;2.87;2.60;;;19.30;44.10;;;;;;4998710;28;20253;-73
2023/12/21 10:16:53;;;;;;;2.40;2.13;;;19.30;44.10;;;;;;4997561;28;20942;-72
2023/12/21 10:19:18;;;;;;;2.00;1.80;;;19.30;44.10;;;;;;4987258;28;20515;-72
2023/12/21 10:21:46;;;;;;;1.93;1.83;;;19.30;44.10;;;;;;4998429;28;20250;-72
2023/12/21 10:24:12;;;;;;;3.70;1.90;;;19.30;44.10;;;;;;4986809;28;20236;-72
2023/12/21 10:26:45;;;;;;;3.43;1.80;;;19.30;44.10;;;;;;4988742;28;20518;-72
2023/12/21 10:29:17;;;;;;;3.33;2.10;;;19.30;44.10;;;;;;4985600;28;21475;-74
2023/12/21 10:31:44;;;;;;;2.13;1.93;;;19.30;44.10;;;;;;4979656;28;20504;-75
2023/12/21 10:34:10;;;;;;;2.73;1.80;;;19.30;44.10;;;;;;4976076;28;20437;-74
2023/12/21 10:36:40;;;;;;;2.00;1.80;;;19.20;44.00;;;;;;4990465;28;20497;-74
2023/12/21 10:39:07;;;;;;;3.80;2.10;;;19.30;44.10;;;;;;4988225;28;20286;-74
2023/12/21 10:41:32;;;;;;;2.47;2.27;;;19.30;44.00;;;;;;4988156;28;20462;-72
2023/12/21 10:43:59;;;;;;;2.03;1.93;;;19.30;44.10;;;;;;4977393;28;20603;-74
2023/12/21 10:46:31;;;;;;;1.77;1.67;;;19.20;44.00;;;;;;4981038;28;20230;-74
2023/12/21 10:49:01;;;;;;;2.50;2.10;;;19.20;44.00;;;;;;4977880;28;20490;-77
2023/12/21 10:51:35;;;;;;;1.93;1.70;;;19.20;44.00;;;;;;4986045;28;20442;-76
2023/12/21 10:54:02;;;;;;;2.50;2.30;;;19.20;44.00;;;;;;4982578;28;20431;-76
2023/12/21 10:56:28;;;;;;;2.50;2.30;;;19.20;44.00;;;;;;4989102;28;20480;-77
2023/12/21 10:58:55;;;;;;;2.10;2.00;;;19.20;44.00;;;;;;4984414;28;20498;-78
2023/12/21 11:01:22;;;;;;;2.37;1.90;;;19.20;44.00;;;;;;4972524;28;20463;-76
2023/12/21 11:03:49;;;;;;;2.20;2.10;;;19.20;44.00;;;;;;4988985;28;20472;-79
2023/12/21 11:06:19;;;;;;;2.13;1.70;;;19.20;44.00;;;;;;4989191;28;20453;-78
2023/12/21 11:08:46;;;;;;;1.83;1.73;;;19.20;44.00;;;;;;4972804;28;20972;-76
2023/12/21 11:11:12;;;;;;;2.07;1.80;;;19.20;43.90;;;;;;4974722;28;20806;-78
2023/12/21 11:13:44;;;;;;;2.50;1.83;;;19.10;44.00;;;;;;4965245;28;20444;-77
2023/12/21 11:16:13;;;;;;;2.00;1.90;;;19.20;44.00;;;;;;4983654;28;20455;-78
2023/12/21 11:18:43;;;;;;;2.00;1.80;;;19.20;44.00;;;;;;4968481;28;20444;-78
2023/12/21 11:21:11;;;;;;;2.10;2.00;;;19.20;44.00;;;;;;4971257;28;20466;-76
2023/12/21 11:23:43;;;;;;;1.77;1.67;;;19.20;44.00;;;;;;4977692;28;20544;-79
2023/12/21 11:26:09;;;;;;;1.80;1.70;;;19.20;44.00;;;;;;4954270;28;21325;-77
2023/12/21 11:28:35;;;;;;;1.97;1.80;;;19.10;43.90;;;;;;4973878;28;20545;-77
2023/12/21 11:31:14;;;;;;;4.00;1.90;;;19.10;43.90;;;;;;4976150;28;20684;-77
2023/12/21 11:33:40;;;;;;;1.70;1.60;;;19.10;44.60;;;;;;4954374;28;21251;-76
2023/12/21 11:36:07;;;;;;;1.53;1.43;;;19.10;43.90;;;;;;4979361;28;20463;-75
2023/12/21 11:38:45;;;;;;;1.77;1.50;;;19.10;43.90;;;;;;4975276;28;20905;-76
2023/12/21 11:41:11;;;;;;;2.10;1.90;;;19.10;43.90;;;;;;4990357;28;20442;-76
2023/12/21 11:43:37;;;;;;;1.90;1.70;;;19.10;43.90;;;;;;4981925;28;20527;-75
2023/12/21 11:46:02;;;;;;;2.00;1.90;;;19.10;43.90;;;;;;4985298;28;21002;-76
2023/12/21 11:48:32;;;;;;;1.50;1.40;;;19.10;43.90;;;;;;4988203;28;20727;-73
2023/12/21 11:51:05;;;;;;;1.63;1.43;;;19.10;44.00;;;;;;4979651;28;20229;-73
2023/12/21 11:53:31;;;;;;;2.20;2.00;;;19.10;43.90;;;;;;4983587;28;20450;-75
2023/12/21 11:55:57;;;;;;;1.70;1.53;;;19.10;44.00;;;;;;4990777;28;20470;-75
2023/12/21 11:58:23;;;;;;;2.43;1.53;;;19.10;44.00;;;;;;4976460;28;20734;-74
2023/12/21 12:00:53;;;;;;;2.57;1.70;;;19.10;44.00;;;;;;4988094;28;20302;-74
2023/12/21 12:03:21;;;;;;;1.77;1.43;;;19.10;44.00;;;;;;4993583;28;20469;-74
2023/12/21 12:05:53;;;;;;;1.73;1.50;;;19.10;44.00;;;;;;4987191;28;20431;-74
2023/12/21 12:08:25;;;;;;;1.53;1.40;;;19.10;44.00;;;;;;4984762;28;20526;-73
2023/12/21 12:10:51;;;;;;;1.93;1.83;;;19.10;44.10;;;;;;4980875;28;21000;-74
2023/12/21 12:13:18;;;;;;;1.70;1.60;;;19.10;44.10;;;;;;4973089;28;20493;-75
2023/12/21 12:15:47;;;;;;;1.97;1.40;;;19.10;44.10;;;;;;4972007;28;20592;-73
2023/12/21 12:18:13;;;;;;;1.80;1.70;;;19.10;44.10;;;;;;4966090;28;20473;-74
2023/12/21 12:20:46;;;;;;;2.00;1.90;;;19.10;44.10;;;;;;4943330;28;20463;-73
2023/12/21 12:23:12;;;;;;;1.70;1.60;;;19.10;44.00;;;;;;4968699;28;20518;-73
2023/12/21 12:25:38;;;;;;;2.60;1.73;;;19.10;44.00;;;;;;4975927;28;20437;-74
2023/12/21 12:28:04;;;;;;;1.77;1.67;;;19.10;44.10;;;;;;4980210;28;20313;-74
2023/12/21 12:30:31;;;;;;;1.40;1.13;;;19.10;44.00;;;;;;4982554;28;20223;-73
2023/12/21 12:33:02;;;;;;;1.77;1.67;;;19.10;44.10;;;;;;4954267;28;20435;-74
2023/12/21 12:35:28;;;;;;;1.70;1.60;;;19.10;44.10;;;;;;4964879;28;20444;-73
2023/12/21 12:37:54;;;;;;;1.47;1.37;;;19.10;44.10;;;;;;4975966;28;20482;-74
2023/12/21 12:40:22;;;;;;;1.90;1.60;;;19.10;44.10;;;;;;4972238;28;20224;-74
2023/12/21 12:42:48;;;;;;;1.43;1.33;;;19.10;44.10;;;;;;4981120;28;20258;-73